sensor_id;sensor_type;location;lat;lon;timestamp;temperature;humidity
24252;DHT22;12380;51.118;4.176;2023-02-03T00:01:00;9.30;99.90
24252;DHT22;12380;51.118;4.176;2023-02-03T00:03:28;9.30;99.90
24252;DHT22;12380;51.118;4.176;2023-02-03T00:05:57;9.20;99.90
24252;DHT22;12380;51.118;4.176;2023-02-03T00:08:24;9.20;99.90
24252;DHT22;12380;51.118;4.176;2023-02-03T00:10:50;9.30;99.90
24252;DHT22;12380;51.118;4.176;2023-02-03T00:13:18;9.20;99.90
24252;DHT22;12380;51.118;4.176;2023-02-03T00:15:44;9.30;99.90
24252;DHT22;12380;51.118;4.176;2023-02-03T00:18:10;9.30;99.90
24252;DHT22;12380;51.118;4.176;2023-02-03T00:20:36;9.30;99.90
24252;DHT22;12380;51.118;4.176;2023-02-03T00:23:11;9.30;99.90
24252;DHT22;12380;51.118;4.176;2023-02-03T00:25:37;9.40;99.90
24252;DHT22;12380;51.118;4.176;2023-02-03T00:28:03;9.30;99.90
24252;DHT22;12380;51.118;4.176;2023-02-03T00:30:30;9.40;99.90
24252;DHT22;12380;51.118;4.176;2023-02-03T00:32:55;9.40;99.90
24252;DHT22;12380;51.118;4.176;2023-02-03T00:35:22;9.40;99.90
24252;DHT22;12380;51.118;4.176;2023-02-03T00:37:52;9.30;99.90
24252;DHT22;12380;51.118;4.176;2023-02-03T00:40:18;9.30;99.90
24252;DHT22;12380;51.118;4.176;2023-02-03T00:42:44;9.40;99.90
24252;DHT22;12380;51.118;4.176;2023-02-03T00:45:10;9.40;99.90
24252;DHT22;12380;51.118;4.176;2023-02-03T00:47:36;9.50;99.90
24252;DHT22;12380;51.118;4.176;2023-02-03T00:50:02;9.40;99.90
24252;DHT22;12380;51.118;4.176;2023-02-03T00:52:27;9.30;99.90
24252;DHT22;12380;51.118;4.176;2023-02-03T00:54:55;9.30;99.90
24252;DHT22;12380;51.118;4.176;2023-02-03T00:57:21;9.30;99.90
24252;DHT22;12380;51.118;4.176;2023-02-03T00:59:46;9.30;99.90
24252;DHT22;12380;51.118;4.176;2023-02-03T01:02:14;9.40;99.90
24252;DHT22;12380;51.118;4.176;2023-02-03T01:04:41;9.50;99.90
24252;DHT22;12380;51.118;4.176;2023-02-03T01:07:07;9.50;99.90
24252;DHT22;12380;51.118;4.176;2023-02-03T01:09:33;9.40;99.90
24252;DHT22;12380;51.118;4.176;2023-02-03T01:11:59;9.50;99.90
24252;DHT22;12380;51.118;4.176;2023-02-03T01:14:24;9.40;99.90
24252;DHT22;12380;51.118;4.176;2023-02-03T01:16:50;9.40;99.90
24252;DHT22;12380;51.118;4.176;2023-02-03T01:19:16;9.50;99.90
24252;DHT22;12380;51.118;4.176;2023-02-03T01:21:41;9.50;99.90
24252;DHT22;12380;51.118;4.176;2023-02-03T01:24:09;9.60;99.90
24252;DHT22;12380;51.118;4.176;2023-02-03T01:26:35;9.60;99.90
24252;DHT22;12380;51.118;4.176;2023-02-03T01:29:02;9.70;99.90
24252;DHT22;12380;51.118;4.176;2023-02-03T01:31:29;9.60;99.90
24252;DHT22;12380;51.118;4.176;2023-02-03T01:33:55;9.50;99.90
24252;DHT22;12380;51.118;4.176;2023-02-03T01:36:22;9.50;99.90
24252;DHT22;12380;51.118;4.176;2023-02-03T01:38:48;9.60;99.90
24252;DHT22;12380;51.118;4.176;2023-02-03T01:41:15;9.50;99.90
24252;DHT22;12380;51.118;4.176;2023-02-03T01:43:45;9.40;99.90
24252;DHT22;12380;51.118;4.176;2023-02-03T01:51:39;9.50;99.90
24252;DHT22;12380;51.118;4.176;2023-02-03T01:54:06;9.30;99.90
24252;DHT22;12380;51.118;4.176;2023-02-03T01:56:34;9.30;99.90
24252;DHT22;12380;51.118;4.176;2023-02-03T01:59:01;9.30;99.90
24252;DHT22;12380;51.118;4.176;2023-02-03T02:01:27;9.30;99.90
24252;DHT22;12380;51.118;4.176;2023-02-03T02:03:57;9.30;99.90
24252;DHT22;12380;51.118;4.176;2023-02-03T02:06:24;9.40;99.90
24252;DHT22;12380;51.118;4.176;2023-02-03T02:08:51;9.40;99.90
24252;DHT22;12380;51.118;4.176;2023-02-03T02:11:17;9.40;99.90
24252;DHT22;12380;51.118;4.176;2023-02-03T02:13:45;9.40;99.90
24252;DHT22;12380;51.118;4.176;2023-02-03T02:16:15;9.40;99.90
24252;DHT22;12380;51.118;4.176;2023-02-03T02:19:00;9.40;99.90
24252;DHT22;12380;51.118;4.176;2023-02-03T02:26:49;9.30;99.90
24252;DHT22;12380;51.118;4.176;2023-02-03T02:39:59;9.20;99.90
24252;DHT22;12380;51.118;4.176;2023-02-03T02:45:16;9.30;99.90
24252;DHT22;12380;51.118;4.176;2023-02-03T02:47:47;9.30;99.90
24252;DHT22;12380;51.118;4.176;2023-02-03T02:50:18;9.30;99.90
24252;DHT22;12380;51.118;4.176;2023-02-03T02:52:45;9.30;99.90
24252;DHT22;12380;51.118;4.176;2023-02-03T02:55:17;9.40;99.90
24252;DHT22;12380;51.118;4.176;2023-02-03T02:57:49;9.40;99.90
24252;DHT22;12380;51.118;4.176;2023-02-03T03:00:15;9.40;99.90
24252;DHT22;12380;51.118;4.176;2023-02-03T03:02:41;9.40;99.90
24252;DHT22;12380;51.118;4.176;2023-02-03T03:05:07;9.30;99.90
24252;DHT22;12380;51.118;4.176;2023-02-03T03:07:35;9.40;99.90
24252;DHT22;12380;51.118;4.176;2023-02-03T03:10:06;9.40;99.90
24252;DHT22;12380;51.118;4.176;2023-02-03T03:12:34;9.40;99.90
24252;DHT22;12380;51.118;4.176;2023-02-03T03:15:10;9.30;99.90
24252;DHT22;12380;51.118;4.176;2023-02-03T03:17:39;9.40;99.90
24252;DHT22;12380;51.118;4.176;2023-02-03T03:20:10;9.40;99.90
24252;DHT22;12380;51.118;4.176;2023-02-03T03:22:39;9.40;99.90
24252;DHT22;12380;51.118;4.176;2023-02-03T03:25:11;9.30;99.90
24252;DHT22;12380;51.118;4.176;2023-02-03T03:27:39;9.50;99.90
24252;DHT22;12380;51.118;4.176;2023-02-03T03:30:10;9.40;99.90
24252;DHT22;12380;51.118;4.176;2023-02-03T03:32:40;9.40;99.90
24252;DHT22;12380;51.118;4.176;2023-02-03T03:35:07;9.40;99.90
24252;DHT22;12380;51.118;4.176;2023-02-03T03:40:08;9.50;99.90
24252;DHT22;12380;51.118;4.176;2023-02-03T03:42:46;9.40;99.90
24252;DHT22;12380;51.118;4.176;2023-02-03T03:45:16;9.50;99.90
24252;DHT22;12380;51.118;4.176;2023-02-03T03:50:17;9.40;99.90
24252;DHT22;12380;51.118;4.176;2023-02-03T03:52:45;9.40;99.90
24252;DHT22;12380;51.118;4.176;2023-02-03T03:55:15;9.40;99.90
24252;DHT22;12380;51.118;4.176;2023-02-03T04:00:32;9.30;99.90
24252;DHT22;12380;51.118;4.176;2023-02-03T04:03:00;9.40;99.90
24252;DHT22;12380;51.118;4.176;2023-02-03T04:05:31;9.30;99.90
24252;DHT22;12380;51.118;4.176;2023-02-03T04:07:57;9.30;99.90
24252;DHT22;12380;51.118;4.176;2023-02-03T04:10:30;9.40;99.90
24252;DHT22;12380;51.118;4.176;2023-02-03T04:12:56;9.40;99.90
24252;DHT22;12380;51.118;4.176;2023-02-03T04:15:22;9.40;99.90
24252;DHT22;12380;51.118;4.176;2023-02-03T04:17:47;9.40;99.90
24252;DHT22;12380;51.118;4.176;2023-02-03T04:20:14;9.40;99.90
24252;DHT22;12380;51.118;4.176;2023-02-03T04:22:44;9.40;99.90
24252;DHT22;12380;51.118;4.176;2023-02-03T04:25:09;9.40;99.90
24252;DHT22;12380;51.118;4.176;2023-02-03T04:27:37;9.40;99.90
24252;DHT22;12380;51.118;4.176;2023-02-03T04:30:03;9.50;99.90
24252;DHT22;12380;51.118;4.176;2023-02-03T04:32:30;9.40;99.90
24252;DHT22;12380;51.118;4.176;2023-02-03T04:34:56;9.40;99.90
24252;DHT22;12380;51.118;4.176;2023-02-03T04:37:22;9.40;99.90
24252;DHT22;12380;51.118;4.176;2023-02-03T04:39:48;9.50;99.90
24252;DHT22;12380;51.118;4.176;2023-02-03T04:42:16;9.40;99.90
24252;DHT22;12380;51.118;4.176;2023-02-03T04:44:42;9.40;99.90
24252;DHT22;12380;51.118;4.176;2023-02-03T04:47:07;9.40;99.90
24252;DHT22;12380;51.118;4.176;2023-02-03T04:49:33;9.40;99.90
24252;DHT22;12380;51.118;4.176;2023-02-03T04:52:01;9.40;99.90
24252;DHT22;12380;51.118;4.176;2023-02-03T04:54:27;9.40;99.90
24252;DHT22;12380;51.118;4.176;2023-02-03T04:56:52;9.30;99.90
24252;DHT22;12380;51.118;4.176;2023-02-03T04:59:18;9.40;99.90
24252;DHT22;12380;51.118;4.176;2023-02-03T05:01:43;9.30;99.90
24252;DHT22;12380;51.118;4.176;2023-02-03T05:04:09;9.40;99.90
24252;DHT22;12380;51.118;4.176;2023-02-03T05:06:35;9.60;99.90
24252;DHT22;12380;51.118;4.176;2023-02-03T05:09:00;9.50;99.90
24252;DHT22;12380;51.118;4.176;2023-02-03T05:11:29;9.50;99.90
24252;DHT22;12380;51.118;4.176;2023-02-03T05:13:54;9.50;99.90
24252;DHT22;12380;51.118;4.176;2023-02-03T05:16:20;9.40;99.90
24252;DHT22;12380;51.118;4.176;2023-02-03T05:18:46;9.40;99.90
24252;DHT22;12380;51.118;4.176;2023-02-03T05:21:12;9.50;99.90
24252;DHT22;12380;51.118;4.176;2023-02-03T05:23:37;9.50;99.90
24252;DHT22;12380;51.118;4.176;2023-02-03T05:26:03;9.60;99.90
24252;DHT22;12380;51.118;4.176;2023-02-03T05:28:28;9.60;99.90
24252;DHT22;12380;51.118;4.176;2023-02-03T05:30:56;9.60;99.90
24252;DHT22;12380;51.118;4.176;2023-02-03T05:33:22;9.50;99.90
24252;DHT22;12380;51.118;4.176;2023-02-03T05:35:48;9.40;99.90
24252;DHT22;12380;51.118;4.176;2023-02-03T05:38:13;9.40;99.90
24252;DHT22;12380;51.118;4.176;2023-02-03T05:40:39;9.50;99.90
24252;DHT22;12380;51.118;4.176;2023-02-03T05:43:23;9.40;99.90
24252;DHT22;12380;51.118;4.176;2023-02-03T05:45:48;9.30;99.90
24252;DHT22;12380;51.118;4.176;2023-02-03T05:48:14;9.30;99.90
24252;DHT22;12380;51.118;4.176;2023-02-03T05:50:40;9.40;99.90
24252;DHT22;12380;51.118;4.176;2023-02-03T05:53:05;9.30;99.90
24252;DHT22;12380;51.118;4.176;2023-02-03T05:55:32;9.30;99.90
24252;DHT22;12380;51.118;4.176;2023-02-03T05:57:58;9.30;99.90
24252;DHT22;12380;51.118;4.176;2023-02-03T06:00:26;9.10;99.90
24252;DHT22;12380;51.118;4.176;2023-02-03T06:02:56;9.00;99.90
24252;DHT22;12380;51.118;4.176;2023-02-03T06:05:22;9.20;99.90
24252;DHT22;12380;51.118;4.176;2023-02-03T06:07:51;9.20;99.90
24252;DHT22;12380;51.118;4.176;2023-02-03T06:10:17;9.30;99.90
24252;DHT22;12380;51.118;4.176;2023-02-03T06:12:42;9.30;99.90
24252;DHT22;12380;51.118;4.176;2023-02-03T06:15:08;9.20;99.90
24252;DHT22;12380;51.118;4.176;2023-02-03T06:17:35;9.20;99.90
24252;DHT22;12380;51.118;4.176;2023-02-03T06:20:01;9.20;99.90
24252;DHT22;12380;51.118;4.176;2023-02-03T06:22:31;9.10;99.90
24252;DHT22;12380;51.118;4.176;2023-02-03T06:25:00;9.10;99.90
24252;DHT22;12380;51.118;4.176;2023-02-03T06:27:25;9.10;99.90
24252;DHT22;12380;51.118;4.176;2023-02-03T06:29:51;9.10;99.90
24252;DHT22;12380;51.118;4.176;2023-02-03T06:32:17;9.10;99.90
24252;DHT22;12380;51.118;4.176;2023-02-03T06:34:43;9.10;99.90
24252;DHT22;12380;51.118;4.176;2023-02-03T06:37:08;9.20;99.90
24252;DHT22;12380;51.118;4.176;2023-02-03T06:39:34;9.30;99.90
24252;DHT22;12380;51.118;4.176;2023-02-03T06:42:00;9.30;99.90
24252;DHT22;12380;51.118;4.176;2023-02-03T06:44:26;9.40;99.90
24252;DHT22;12380;51.118;4.176;2023-02-03T06:46:51;9.30;99.90
24252;DHT22;12380;51.118;4.176;2023-02-03T06:49:17;9.40;99.90
24252;DHT22;12380;51.118;4.176;2023-02-03T06:51:44;9.30;99.90
24252;DHT22;12380;51.118;4.176;2023-02-03T06:54:10;9.30;99.90
24252;DHT22;12380;51.118;4.176;2023-02-03T06:56:36;9.30;99.90
24252;DHT22;12380;51.118;4.176;2023-02-03T06:59:03;9.30;99.90
24252;DHT22;12380;51.118;4.176;2023-02-03T07:01:29;9.40;99.90
24252;DHT22;12380;51.118;4.176;2023-02-03T07:03:55;9.40;99.90
24252;DHT22;12380;51.118;4.176;2023-02-03T07:06:22;9.30;99.90
24252;DHT22;12380;51.118;4.176;2023-02-03T07:08:48;9.30;99.90
24252;DHT22;12380;51.118;4.176;2023-02-03T07:11:14;9.40;99.90
24252;DHT22;12380;51.118;4.176;2023-02-03T07:13:39;9.50;99.90
24252;DHT22;12380;51.118;4.176;2023-02-03T07:16:05;9.60;99.90
24252;DHT22;12380;51.118;4.176;2023-02-03T07:18:31;9.50;99.90
24252;DHT22;12380;51.118;4.176;2023-02-03T07:21:02;9.40;99.90
24252;DHT22;12380;51.118;4.176;2023-02-03T07:23:30;9.20;99.90
24252;DHT22;12380;51.118;4.176;2023-02-03T07:26:02;9.20;99.90
24252;DHT22;12380;51.118;4.176;2023-02-03T07:28:29;9.30;99.90
24252;DHT22;12380;51.118;4.176;2023-02-03T07:30:55;9.40;99.90
24252;DHT22;12380;51.118;4.176;2023-02-03T07:33:21;9.40;99.90
24252;DHT22;12380;51.118;4.176;2023-02-03T07:35:53;9.50;99.90
24252;DHT22;12380;51.118;4.176;2023-02-03T07:38:21;9.50;99.90
24252;DHT22;12380;51.118;4.176;2023-02-03T07:40:47;9.40;99.90
24252;DHT22;12380;51.118;4.176;2023-02-03T07:43:13;9.40;99.90
24252;DHT22;12380;51.118;4.176;2023-02-03T07:45:39;9.30;99.90
24252;DHT22;12380;51.118;4.176;2023-02-03T07:48:05;9.40;99.90
24252;DHT22;12380;51.118;4.176;2023-02-03T07:50:31;9.50;99.90
24252;DHT22;12380;51.118;4.176;2023-02-03T07:52:58;9.50;99.90
24252;DHT22;12380;51.118;4.176;2023-02-03T07:55:24;9.40;99.90
24252;DHT22;12380;51.118;4.176;2023-02-03T07:57:49;9.40;99.90
24252;DHT22;12380;51.118;4.176;2023-02-03T08:00:15;9.50;99.90
24252;DHT22;12380;51.118;4.176;2023-02-03T08:02:41;9.50;99.90
24252;DHT22;12380;51.118;4.176;2023-02-03T08:05:10;9.40;99.90
24252;DHT22;12380;51.118;4.176;2023-02-03T08:07:38;9.40;99.90
24252;DHT22;12380;51.118;4.176;2023-02-03T08:10:07;9.40;99.90
24252;DHT22;12380;51.118;4.176;2023-02-03T08:12:32;9.30;99.90
24252;DHT22;12380;51.118;4.176;2023-02-03T08:14:58;9.40;99.90
24252;DHT22;12380;51.118;4.176;2023-02-03T08:17:24;9.40;99.90
24252;DHT22;12380;51.118;4.176;2023-02-03T08:19:50;9.50;99.90
24252;DHT22;12380;51.118;4.176;2023-02-03T08:22:15;9.60;99.90
24252;DHT22;12380;51.118;4.176;2023-02-03T08:24:42;9.60;99.90
24252;DHT22;12380;51.118;4.176;2023-02-03T08:27:17;9.60;99.90
24252;DHT22;12380;51.118;4.176;2023-02-03T08:29:43;9.70;99.90
24252;DHT22;12380;51.118;4.176;2023-02-03T08:32:10;9.90;99.90
24252;DHT22;12380;51.118;4.176;2023-02-03T08:34:37;9.80;99.90
24252;DHT22;12380;51.118;4.176;2023-02-03T08:37:05;9.80;99.90
24252;DHT22;12380;51.118;4.176;2023-02-03T08:39:34;9.90;99.90
24252;DHT22;12380;51.118;4.176;2023-02-03T08:41:59;9.90;99.90
24252;DHT22;12380;51.118;4.176;2023-02-03T08:44:25;9.80;99.90
24252;DHT22;12380;51.118;4.176;2023-02-03T08:46:51;9.80;99.90
24252;DHT22;12380;51.118;4.176;2023-02-03T08:49:18;9.80;99.90
24252;DHT22;12380;51.118;4.176;2023-02-03T08:51:49;9.90;99.90
24252;DHT22;12380;51.118;4.176;2023-02-03T08:54:17;10.00;99.90
24252;DHT22;12380;51.118;4.176;2023-02-03T08:56:44;10.10;99.90
24252;DHT22;12380;51.118;4.176;2023-02-03T08:59:09;10.10;99.90
24252;DHT22;12380;51.118;4.176;2023-02-03T09:01:35;10.10;99.90
24252;DHT22;12380;51.118;4.176;2023-02-03T09:04:01;10.10;99.90
24252;DHT22;12380;51.118;4.176;2023-02-03T09:06:28;10.10;99.90
24252;DHT22;12380;51.118;4.176;2023-02-03T09:08:55;10.00;99.90
24252;DHT22;12380;51.118;4.176;2023-02-03T09:11:21;10.10;99.90
24252;DHT22;12380;51.118;4.176;2023-02-03T09:13:47;10.10;99.90
24252;DHT22;12380;51.118;4.176;2023-02-03T09:16:13;10.10;99.90
24252;DHT22;12380;51.118;4.176;2023-02-03T09:18:41;10.10;99.90
24252;DHT22;12380;51.118;4.176;2023-02-03T09:21:08;10.20;99.90
24252;DHT22;12380;51.118;4.176;2023-02-03T09:23:36;10.20;99.90
24252;DHT22;12380;51.118;4.176;2023-02-03T09:26:02;10.30;99.90
24252;DHT22;12380;51.118;4.176;2023-02-03T09:28:27;10.30;99.90
24252;DHT22;12380;51.118;4.176;2023-02-03T09:31:02;10.30;99.90
24252;DHT22;12380;51.118;4.176;2023-02-03T09:33:28;10.30;99.90
24252;DHT22;12380;51.118;4.176;2023-02-03T09:35:54;10.40;99.90
24252;DHT22;12380;51.118;4.176;2023-02-03T09:38:20;10.40;99.90
24252;DHT22;12380;51.118;4.176;2023-02-03T09:40:48;10.40;99.90
24252;DHT22;12380;51.118;4.176;2023-02-03T09:45:44;10.60;99.90
24252;DHT22;12380;51.118;4.176;2023-02-03T09:48:18;10.80;99.90
24252;DHT22;12380;51.118;4.176;2023-02-03T09:50:45;10.90;99.90
24252;DHT22;12380;51.118;4.176;2023-02-03T09:53:34;10.90;99.90
24252;DHT22;12380;51.118;4.176;2023-02-03T09:55:59;10.90;99.90
24252;DHT22;12380;51.118;4.176;2023-02-03T09:58:26;10.90;99.90
24252;DHT22;12380;51.118;4.176;2023-02-03T10:00:54;10.90;99.90
24252;DHT22;12380;51.118;4.176;2023-02-03T10:16:58;11.40;99.90
24252;DHT22;12380;51.118;4.176;2023-02-03T10:19:21;11.40;99.90
24252;DHT22;12380;51.118;4.176;2023-02-03T10:21:52;11.20;99.90
24252;DHT22;12380;51.118;4.176;2023-02-03T10:24:25;11.30;99.90
24252;DHT22;12380;51.118;4.176;2023-02-03T10:26:51;11.40;99.90
24252;DHT22;12380;51.118;4.176;2023-02-03T10:29:22;11.40;99.90
24252;DHT22;12380;51.118;4.176;2023-02-03T10:31:53;11.40;99.90
24252;DHT22;12380;51.118;4.176;2023-02-03T10:34:19;11.40;99.90
24252;DHT22;12380;51.118;4.176;2023-02-03T10:36:52;11.60;99.90
24252;DHT22;12380;51.118;4.176;2023-02-03T10:39:40;11.50;99.90
24252;DHT22;12380;51.118;4.176;2023-02-03T10:42:07;11.40;99.90
24252;DHT22;12380;51.118;4.176;2023-02-03T10:47:08;11.60;99.90
24252;DHT22;12380;51.118;4.176;2023-02-03T10:49:34;11.60;99.90
24252;DHT22;12380;51.118;4.176;2023-02-03T10:52:02;11.50;99.90
24252;DHT22;12380;51.118;4.176;2023-02-03T10:57:29;11.40;99.90
24252;DHT22;12380;51.118;4.176;2023-02-03T10:59:48;11.50;99.90
24252;DHT22;12380;51.118;4.176;2023-02-03T11:02:23;11.40;99.90
24252;DHT22;12380;51.118;4.176;2023-02-03T11:05:07;11.40;99.90
24252;DHT22;12380;51.118;4.176;2023-02-03T11:07:33;11.30;99.90
24252;DHT22;12380;51.118;4.176;2023-02-03T11:10:01;11.40;99.90
24252;DHT22;12380;51.118;4.176;2023-02-03T11:12:29;11.30;99.90
24252;DHT22;12380;51.118;4.176;2023-02-03T11:14:57;11.30;99.90
24252;DHT22;12380;51.118;4.176;2023-02-03T11:17:29;11.30;99.90
24252;DHT22;12380;51.118;4.176;2023-02-03T11:20:02;11.40;99.90
24252;DHT22;12380;51.118;4.176;2023-02-03T11:22:28;11.40;99.90
24252;DHT22;12380;51.118;4.176;2023-02-03T11:24:54;11.40;99.90
24252;DHT22;12380;51.118;4.176;2023-02-03T11:27:20;11.40;99.90
24252;DHT22;12380;51.118;4.176;2023-02-03T11:29:49;11.50;99.90
24252;DHT22;12380;51.118;4.176;2023-02-03T11:32:22;11.60;99.90
24252;DHT22;12380;51.118;4.176;2023-02-03T11:37:28;11.60;99.90
24252;DHT22;12380;51.118;4.176;2023-02-03T11:39:56;11.70;99.90
24252;DHT22;12380;51.118;4.176;2023-02-03T11:42:38;11.70;99.90
24252;DHT22;12380;51.118;4.176;2023-02-03T11:47:45;11.70;99.90
24252;DHT22;12380;51.118;4.176;2023-02-03T11:52:46;11.50;99.90
24252;DHT22;12380;51.118;4.176;2023-02-03T12:19:08;11.50;99.90
24252;DHT22;12380;51.118;4.176;2023-02-03T12:21:40;11.50;99.90
24252;DHT22;12380;51.118;4.176;2023-02-03T12:29:20;11.60;99.90
24252;DHT22;12380;51.118;4.176;2023-02-03T12:34:32;11.60;99.90
24252;DHT22;12380;51.118;4.176;2023-02-03T12:37:04;11.50;99.90
24252;DHT22;12380;51.118;4.176;2023-02-03T12:42:10;11.60;99.90
24252;DHT22;12380;51.118;4.176;2023-02-03T12:44:44;11.50;99.90
24252;DHT22;12380;51.118;4.176;2023-02-03T12:47:13;11.50;99.90
24252;DHT22;12380;51.118;4.176;2023-02-03T12:49:53;11.50;99.90
24252;DHT22;12380;51.118;4.176;2023-02-03T12:57:24;11.50;99.90
24252;DHT22;12380;51.118;4.176;2023-02-03T13:00:02;11.50;99.90
24252;DHT22;12380;51.118;4.176;2023-02-03T13:02:30;11.50;99.90
24252;DHT22;12380;51.118;4.176;2023-02-03T13:05:03;11.50;99.90
24252;DHT22;12380;51.118;4.176;2023-02-03T13:07:37;11.50;99.90
24252;DHT22;12380;51.118;4.176;2023-02-03T13:10:11;11.50;99.90
24252;DHT22;12380;51.118;4.176;2023-02-03T13:12:44;11.60;99.90
24252;DHT22;12380;51.118;4.176;2023-02-03T13:20:28;11.70;99.90
24252;DHT22;12380;51.118;4.176;2023-02-03T13:22:58;11.70;99.90
24252;DHT22;12380;51.118;4.176;2023-02-03T13:25:38;11.80;99.90
24252;DHT22;12380;51.118;4.176;2023-02-03T13:31:08;11.70;99.90
24252;DHT22;12380;51.118;4.176;2023-02-03T13:44:35;11.60;99.90
24252;DHT22;12380;51.118;4.176;2023-02-03T13:47:01;11.60;99.90
24252;DHT22;12380;51.118;4.176;2023-02-03T13:49:31;11.70;99.90
24252;DHT22;12380;51.118;4.176;2023-02-03T13:51:58;11.70;99.90
24252;DHT22;12380;51.118;4.176;2023-02-03T13:54:29;11.80;99.90
24252;DHT22;12380;51.118;4.176;2023-02-03T13:57:02;11.70;99.90
24252;DHT22;12380;51.118;4.176;2023-02-03T14:10:39;11.50;99.90
24252;DHT22;12380;51.118;4.176;2023-02-03T14:17:58;11.40;99.90
24252;DHT22;12380;51.118;4.176;2023-02-03T14:25:26;11.40;99.90
24252;DHT22;12380;51.118;4.176;2023-02-03T14:28:03;11.40;99.90
24252;DHT22;12380;51.118;4.176;2023-02-03T14:30:32;11.50;99.90
24252;DHT22;12380;51.118;4.176;2023-02-03T14:33:16;11.60;99.90
24252;DHT22;12380;51.118;4.176;2023-02-03T14:35:41;11.50;99.90
24252;DHT22;12380;51.118;4.176;2023-02-03T14:38:10;11.50;99.90
24252;DHT22;12380;51.118;4.176;2023-02-03T14:40:49;11.50;99.90
24252;DHT22;12380;51.118;4.176;2023-02-03T14:43:38;11.40;99.90
24252;DHT22;12380;51.118;4.176;2023-02-03T14:51:36;11.40;99.90
24252;DHT22;12380;51.118;4.176;2023-02-03T14:59:24;11.40;99.90
24252;DHT22;12380;51.118;4.176;2023-02-03T15:06:47;11.40;99.90
24252;DHT22;12380;51.118;4.176;2023-02-03T15:09:19;11.50;99.90
24252;DHT22;12380;51.118;4.176;2023-02-03T15:11:47;11.60;99.90
24252;DHT22;12380;51.118;4.176;2023-02-03T15:14:22;11.50;99.90
24252;DHT22;12380;51.118;4.176;2023-02-03T15:16:58;11.60;99.90
24252;DHT22;12380;51.118;4.176;2023-02-03T15:19:25;11.80;99.90
24252;DHT22;12380;51.118;4.176;2023-02-03T15:21:54;11.70;99.90
24252;DHT22;12380;51.118;4.176;2023-02-03T15:24:21;11.60;99.90
24252;DHT22;12380;51.118;4.176;2023-02-03T15:26:49;11.60;99.90
24252;DHT22;12380;51.118;4.176;2023-02-03T15:29:33;11.50;99.90
24252;DHT22;12380;51.118;4.176;2023-02-03T15:32:01;11.40;99.90
24252;DHT22;12380;51.118;4.176;2023-02-03T15:34:42;11.40;99.90
24252;DHT22;12380;51.118;4.176;2023-02-03T15:42:32;11.10;99.90
24252;DHT22;12380;51.118;4.176;2023-02-03T15:47:54;11.10;99.90
24252;DHT22;12380;51.118;4.176;2023-02-03T15:52:52;11.20;99.90
24252;DHT22;12380;51.118;4.176;2023-02-03T15:55:38;11.20;99.90
24252;DHT22;12380;51.118;4.176;2023-02-03T15:58:10;11.20;99.90
24252;DHT22;12380;51.118;4.176;2023-02-03T16:00:39;11.20;99.90
24252;DHT22;12380;51.118;4.176;2023-02-03T16:03:39;11.20;99.90
24252;DHT22;12380;51.118;4.176;2023-02-03T16:05:57;11.30;99.90
24252;DHT22;12380;51.118;4.176;2023-02-03T16:08:34;11.40;99.90
24252;DHT22;12380;51.118;4.176;2023-02-03T16:11:01;11.40;99.90
24252;DHT22;12380;51.118;4.176;2023-02-03T16:13:44;11.30;99.90
24252;DHT22;12380;51.118;4.176;2023-02-03T16:16:16;11.10;99.90
24252;DHT22;12380;51.118;4.176;2023-02-03T16:19:03;10.90;99.90
24252;DHT22;12380;51.118;4.176;2023-02-03T16:21:29;10.80;99.90
24252;DHT22;12380;51.118;4.176;2023-02-03T16:23:56;10.60;99.90
24252;DHT22;12380;51.118;4.176;2023-02-03T16:26:25;10.70;99.90
24252;DHT22;12380;51.118;4.176;2023-02-03T16:28:55;10.70;99.90
24252;DHT22;12380;51.118;4.176;2023-02-03T16:31:41;10.50;99.90
24252;DHT22;12380;51.118;4.176;2023-02-03T16:34:27;10.50;99.90
24252;DHT22;12380;51.118;4.176;2023-02-03T16:37:33;10.40;99.90
24252;DHT22;12380;51.118;4.176;2023-02-03T16:40:18;10.30;99.90
24252;DHT22;12380;51.118;4.176;2023-02-03T16:43:03;10.30;99.90
24252;DHT22;12380;51.118;4.176;2023-02-03T16:45:54;10.10;99.90
24252;DHT22;12380;51.118;4.176;2023-02-03T16:48:38;10.10;99.90
24252;DHT22;12380;51.118;4.176;2023-02-03T16:51:23;10.30;99.90
24252;DHT22;12380;51.118;4.176;2023-02-03T16:53:48;10.30;99.90
24252;DHT22;12380;51.118;4.176;2023-02-03T16:56:16;10.20;99.90
24252;DHT22;12380;51.118;4.176;2023-02-03T16:58:45;10.30;99.90
24252;DHT22;12380;51.118;4.176;2023-02-03T17:01:10;10.20;99.90
24252;DHT22;12380;51.118;4.176;2023-02-03T17:03:36;10.20;99.90
24252;DHT22;12380;51.118;4.176;2023-02-03T17:06:03;10.50;99.90
24252;DHT22;12380;51.118;4.176;2023-02-03T17:08:30;10.40;99.90
24252;DHT22;12380;51.118;4.176;2023-02-03T17:11:00;10.30;99.90
24252;DHT22;12380;51.118;4.176;2023-02-03T17:13:26;10.20;99.90
24252;DHT22;12380;51.118;4.176;2023-02-03T17:15:52;10.10;99.90
24252;DHT22;12380;51.118;4.176;2023-02-03T17:18:20;10.10;99.90
24252;DHT22;12380;51.118;4.176;2023-02-03T17:20:46;10.00;99.90
24252;DHT22;12380;51.118;4.176;2023-02-03T17:23:15;9.90;99.90
24252;DHT22;12380;51.118;4.176;2023-02-03T17:25:45;10.00;99.90
24252;DHT22;12380;51.118;4.176;2023-02-03T17:28:11;9.90;99.90
24252;DHT22;12380;51.118;4.176;2023-02-03T17:30:37;9.90;99.90
24252;DHT22;12380;51.118;4.176;2023-02-03T17:33:04;9.90;99.90
24252;DHT22;12380;51.118;4.176;2023-02-03T17:35:37;9.90;99.90
24252;DHT22;12380;51.118;4.176;2023-02-03T17:38:03;10.00;99.90
24252;DHT22;12380;51.118;4.176;2023-02-03T17:40:29;9.90;99.90
24252;DHT22;12380;51.118;4.176;2023-02-03T17:42:55;9.80;99.90
24252;DHT22;12380;51.118;4.176;2023-02-03T17:45:20;10.00;99.90
24252;DHT22;12380;51.118;4.176;2023-02-03T17:47:47;9.90;99.90
24252;DHT22;12380;51.118;4.176;2023-02-03T17:50:14;10.10;99.90
24252;DHT22;12380;51.118;4.176;2023-02-03T17:52:42;10.00;99.90
24252;DHT22;12380;51.118;4.176;2023-02-03T17:55:09;10.10;99.90
24252;DHT22;12380;51.118;4.176;2023-02-03T17:57:37;10.10;99.90
24252;DHT22;12380;51.118;4.176;2023-02-03T18:00:04;10.10;99.90
24252;DHT22;12380;51.118;4.176;2023-02-03T18:02:29;10.10;99.90
24252;DHT22;12380;51.118;4.176;2023-02-03T18:04:55;10.20;99.90
24252;DHT22;12380;51.118;4.176;2023-02-03T18:07:21;10.20;99.90
24252;DHT22;12380;51.118;4.176;2023-02-03T18:09:47;10.20;99.90
24252;DHT22;12380;51.118;4.176;2023-02-03T18:12:15;10.30;99.90
24252;DHT22;12380;51.118;4.176;2023-02-03T18:14:41;10.30;99.90
24252;DHT22;12380;51.118;4.176;2023-02-03T18:17:09;10.30;99.90
24252;DHT22;12380;51.118;4.176;2023-02-03T18:19:34;10.20;99.90
24252;DHT22;12380;51.118;4.176;2023-02-03T18:22:00;10.20;99.90
24252;DHT22;12380;51.118;4.176;2023-02-03T18:24:25;10.30;99.90
24252;DHT22;12380;51.118;4.176;2023-02-03T18:26:57;10.20;99.90
24252;DHT22;12380;51.118;4.176;2023-02-03T18:29:26;10.30;99.90
24252;DHT22;12380;51.118;4.176;2023-02-03T18:31:54;10.30;99.90
24252;DHT22;12380;51.118;4.176;2023-02-03T18:34:20;10.40;99.90
24252;DHT22;12380;51.118;4.176;2023-02-03T18:36:46;10.60;99.90